sensor_id;sensor_type;location;lat;lon;timestamp;P1;durP1;ratioP1;P2;durP2;ratioP2
1306;SDS011;646;48.696;9.114;2023-02-15T00:02:18;29.97;;;15.40;;
1306;SDS011;646;48.696;9.114;2023-02-15T00:04:44;22.83;;;14.32;;
1306;SDS011;646;48.696;9.114;2023-02-15T00:07:14;25.23;;;15.48;;
1306;SDS011;646;48.696;9.114;2023-02-15T00:09:40;29.35;;;15.85;;
1306;SDS011;646;48.696;9.114;2023-02-15T00:12:06;22.67;;;14.20;;
1306;SDS011;646;48.696;9.114;2023-02-15T00:14:31;25.80;;;14.53;;
1306;SDS011;646;48.696;9.114;2023-02-15T00:16:57;23.37;;;15.67;;
1306;SDS011;646;48.696;9.114;2023-02-15T00:19:24;23.75;;;16.67;;
1306;SDS011;646;48.696;9.114;2023-02-15T00:21:50;26.40;;;15.20;;
1306;SDS011;646;48.696;9.114;2023-02-15T00:24:16;25.27;;;15.00;;
1306;SDS011;646;48.696;9.114;2023-02-15T00:26:43;25.90;;;14.98;;
1306;SDS011;646;48.696;9.114;2023-02-15T00:29:10;23.92;;;14.88;;
1306;SDS011;646;48.696;9.114;2023-02-15T00:31:37;24.88;;;14.25;;
1306;SDS011;646;48.696;9.114;2023-02-15T00:36:32;23.63;;;15.50;;
1306;SDS011;646;48.696;9.114;2023-02-15T00:38:58;21.40;;;14.60;;
1306;SDS011;646;48.696;9.114;2023-02-15T00:41:24;21.17;;;13.93;;
1306;SDS011;646;48.696;9.114;2023-02-15T00:43:49;23.23;;;15.77;;
1306;SDS011;646;48.696;9.114;2023-02-15T00:46:15;20.20;;;13.90;;
1306;SDS011;646;48.696;9.114;2023-02-15T00:48:40;24.83;;;16.03;;
1306;SDS011;646;48.696;9.114;2023-02-15T00:51:06;27.20;;;15.00;;
1306;SDS011;646;48.696;9.114;2023-02-15T00:53:31;22.23;;;14.53;;
1306;SDS011;646;48.696;9.114;2023-02-15T00:55:57;20.03;;;15.50;;
1306;SDS011;646;48.696;9.114;2023-02-15T00:58:23;23.93;;;14.40;;
1306;SDS011;646;48.696;9.114;2023-02-15T01:00:48;19.63;;;13.17;;
1306;SDS011;646;48.696;9.114;2023-02-15T01:03:15;17.33;;;12.70;;
1306;SDS011;646;48.696;9.114;2023-02-15T01:05:41;22.30;;;14.38;;
1306;SDS011;646;48.696;9.114;2023-02-15T01:08:07;18.97;;;13.33;;
1306;SDS011;646;48.696;9.114;2023-02-15T01:10:33;21.33;;;13.40;;
1306;SDS011;646;48.696;9.114;2023-02-15T01:12:59;22.55;;;13.85;;
1306;SDS011;646;48.696;9.114;2023-02-15T01:15:25;17.37;;;12.90;;
1306;SDS011;646;48.696;9.114;2023-02-15T01:17:51;20.87;;;13.20;;
1306;SDS011;646;48.696;9.114;2023-02-15T01:20:18;24.38;;;14.30;;
1306;SDS011;646;48.696;9.114;2023-02-15T01:22:49;19.95;;;12.15;;
1306;SDS011;646;48.696;9.114;2023-02-15T01:25:16;22.55;;;12.95;;
1306;SDS011;646;48.696;9.114;2023-02-15T01:27:42;22.38;;;13.05;;
1306;SDS011;646;48.696;9.114;2023-02-15T01:30:08;21.87;;;14.40;;
1306;SDS011;646;48.696;9.114;2023-02-15T01:32:34;21.20;;;13.70;;
1306;SDS011;646;48.696;9.114;2023-02-15T01:35:00;19.30;;;11.83;;
1306;SDS011;646;48.696;9.114;2023-02-15T01:37:26;24.48;;;13.55;;
1306;SDS011;646;48.696;9.114;2023-02-15T01:39:51;16.90;;;11.90;;
1306;SDS011;646;48.696;9.114;2023-02-15T01:42:24;23.40;;;13.18;;
1306;SDS011;646;48.696;9.114;2023-02-15T01:44:52;19.15;;;13.10;;
1306;SDS011;646;48.696;9.114;2023-02-15T01:47:33;26.00;;;14.15;;
1306;SDS011;646;48.696;9.114;2023-02-15T01:52:35;17.85;;;12.82;;
1306;SDS011;646;48.696;9.114;2023-02-15T01:55:03;22.63;;;14.27;;
1306;SDS011;646;48.696;9.114;2023-02-15T01:57:29;20.30;;;13.43;;
1306;SDS011;646;48.696;9.114;2023-02-15T01:59:56;23.70;;;13.70;;
1306;SDS011;646;48.696;9.114;2023-02-15T02:02:25;20.80;;;13.95;;
1306;SDS011;646;48.696;9.114;2023-02-15T02:04:53;17.98;;;13.20;;
1306;SDS011;646;48.696;9.114;2023-02-15T02:07:23;20.10;;;13.65;;
1306;SDS011;646;48.696;9.114;2023-02-15T02:09:52;21.40;;;13.60;;
1306;SDS011;646;48.696;9.114;2023-02-15T02:12:18;23.50;;;13.90;;
1306;SDS011;646;48.696;9.114;2023-02-15T02:14:45;18.77;;;12.32;;
1306;SDS011;646;48.696;9.114;2023-02-15T02:17:15;21.00;;;13.45;;
1306;SDS011;646;48.696;9.114;2023-02-15T02:31:29;20.48;;;13.18;;
1306;SDS011;646;48.696;9.114;2023-02-15T02:34:16;28.65;;;14.65;;
1306;SDS011;646;48.696;9.114;2023-02-15T02:37:48;23.42;;;13.60;;
1306;SDS011;646;48.696;9.114;2023-02-15T02:39:55;16.80;;;11.75;;
1306;SDS011;646;48.696;9.114;2023-02-15T02:42:43;21.95;;;12.05;;
1306;SDS011;646;48.696;9.114;2023-02-15T02:45:23;21.88;;;13.15;;
1306;SDS011;646;48.696;9.114;2023-02-15T02:48:08;19.10;;;13.25;;
1306;SDS011;646;48.696;9.114;2023-02-15T02:50:38;20.25;;;12.20;;
1306;SDS011;646;48.696;9.114;2023-02-15T02:53:04;22.83;;;13.57;;
1306;SDS011;646;48.696;9.114;2023-02-15T02:55:31;18.10;;;13.20;;
1306;SDS011;646;48.696;9.114;2023-02-15T02:58:14;19.02;;;11.90;;
1306;SDS011;646;48.696;9.114;2023-02-15T03:00:56;20.35;;;13.70;;
1306;SDS011;646;48.696;9.114;2023-02-15T03:03:34;16.77;;;12.25;;
1306;SDS011;646;48.696;9.114;2023-02-15T03:06:04;17.85;;;11.80;;
1306;SDS011;646;48.696;9.114;2023-02-15T03:08:36;20.20;;;13.05;;
1306;SDS011;646;48.696;9.114;2023-02-15T03:11:07;21.63;;;12.80;;
1306;SDS011;646;48.696;9.114;2023-02-15T03:13:33;18.90;;;13.82;;
1306;SDS011;646;48.696;9.114;2023-02-15T03:16:00;20.90;;;12.57;;
1306;SDS011;646;48.696;9.114;2023-02-15T03:18:47;18.73;;;11.68;;
1306;SDS011;646;48.696;9.114;2023-02-15T03:21:24;17.33;;;11.38;;
1306;SDS011;646;48.696;9.114;2023-02-15T03:24:22;21.50;;;13.13;;
1306;SDS011;646;48.696;9.114;2023-02-15T03:26:51;22.20;;;12.00;;
1306;SDS011;646;48.696;9.114;2023-02-15T03:29:19;16.35;;;13.40;;
1306;SDS011;646;48.696;9.114;2023-02-15T03:31:51;22.52;;;13.98;;
1306;SDS011;646;48.696;9.114;2023-02-15T03:34:21;18.48;;;11.93;;
1306;SDS011;646;48.696;9.114;2023-02-15T03:36:51;19.40;;;12.47;;
1306;SDS011;646;48.696;9.114;2023-02-15T03:39:27;20.27;;;11.75;;
1306;SDS011;646;48.696;9.114;2023-02-15T03:42:14;18.60;;;12.45;;
1306;SDS011;646;48.696;9.114;2023-02-15T03:45:01;23.08;;;13.23;;
1306;SDS011;646;48.696;9.114;2023-02-15T03:47:35;19.67;;;12.32;;
1306;SDS011;646;48.696;9.114;2023-02-15T03:53:22;20.73;;;13.23;;
1306;SDS011;646;48.696;9.114;2023-02-15T03:55:50;22.45;;;12.57;;
1306;SDS011;646;48.696;9.114;2023-02-15T03:58:19;17.55;;;11.82;;
1306;SDS011;646;48.696;9.114;2023-02-15T04:01:05;20.83;;;11.52;;
1306;SDS011;646;48.696;9.114;2023-02-15T04:04:19;18.45;;;11.48;;
1306;SDS011;646;48.696;9.114;2023-02-15T04:06:47;19.73;;;12.10;;
1306;SDS011;646;48.696;9.114;2023-02-15T04:09:13;24.63;;;13.83;;
1306;SDS011;646;48.696;9.114;2023-02-15T04:11:57;17.25;;;11.90;;
1306;SDS011;646;48.696;9.114;2023-02-15T04:14:23;22.53;;;13.87;;
1306;SDS011;646;48.696;9.114;2023-02-15T04:17:08;15.55;;;12.30;;
1306;SDS011;646;48.696;9.114;2023-02-15T04:19:34;25.70;;;13.10;;
1306;SDS011;646;48.696;9.114;2023-02-15T04:22:19;21.42;;;14.80;;
1306;SDS011;646;48.696;9.114;2023-02-15T04:25:03;15.13;;;12.30;;
1306;SDS011;646;48.696;9.114;2023-02-15T04:27:34;22.90;;;13.65;;
1306;SDS011;646;48.696;9.114;2023-02-15T04:30:00;23.27;;;14.30;;
1306;SDS011;646;48.696;9.114;2023-02-15T04:32:26;21.53;;;12.50;;
1306;SDS011;646;48.696;9.114;2023-02-15T04:34:52;18.90;;;12.60;;
1306;SDS011;646;48.696;9.114;2023-02-15T04:37:18;18.13;;;12.27;;
1306;SDS011;646;48.696;9.114;2023-02-15T04:39:43;21.37;;;12.60;;
1306;SDS011;646;48.696;9.114;2023-02-15T04:42:08;21.57;;;13.93;;
1306;SDS011;646;48.696;9.114;2023-02-15T04:44:34;17.23;;;11.27;;
1306;SDS011;646;48.696;9.114;2023-02-15T04:46:59;16.83;;;12.50;;
1306;SDS011;646;48.696;9.114;2023-02-15T04:49:25;20.70;;;11.40;;
1306;SDS011;646;48.696;9.114;2023-02-15T04:51:50;19.20;;;12.13;;
1306;SDS011;646;48.696;9.114;2023-02-15T04:54:16;15.03;;;11.97;;
1306;SDS011;646;48.696;9.114;2023-02-15T04:56:42;19.63;;;12.20;;
1306;SDS011;646;48.696;9.114;2023-02-15T04:59:09;19.80;;;11.60;;
1306;SDS011;646;48.696;9.114;2023-02-15T05:01:35;17.40;;;13.38;;
1306;SDS011;646;48.696;9.114;2023-02-15T05:04:01;15.47;;;11.07;;
1306;SDS011;646;48.696;9.114;2023-02-15T05:06:27;16.05;;;11.75;;
1306;SDS011;646;48.696;9.114;2023-02-15T05:08:53;23.00;;;13.67;;
1306;SDS011;646;48.696;9.114;2023-02-15T05:11:18;18.70;;;13.27;;
1306;SDS011;646;48.696;9.114;2023-02-15T05:13:44;17.33;;;10.50;;
1306;SDS011;646;48.696;9.114;2023-02-15T05:16:09;14.20;;;10.40;;
1306;SDS011;646;48.696;9.114;2023-02-15T05:18:35;22.30;;;12.80;;
1306;SDS011;646;48.696;9.114;2023-02-15T05:21:00;20.07;;;10.93;;
1306;SDS011;646;48.696;9.114;2023-02-15T05:23:26;16.80;;;11.17;;
1306;SDS011;646;48.696;9.114;2023-02-15T05:25:51;18.67;;;12.40;;
1306;SDS011;646;48.696;9.114;2023-02-15T05:28:36;16.98;;;10.95;;
1306;SDS011;646;48.696;9.114;2023-02-15T05:31:04;23.27;;;13.88;;
1306;SDS011;646;48.696;9.114;2023-02-15T05:33:36;18.23;;;12.35;;
1306;SDS011;646;48.696;9.114;2023-02-15T05:36:02;23.25;;;14.07;;
1306;SDS011;646;48.696;9.114;2023-02-15T05:38:28;18.55;;;12.00;;
1306;SDS011;646;48.696;9.114;2023-02-15T05:40:54;21.67;;;14.88;;
1306;SDS011;646;48.696;9.114;2023-02-15T05:43:20;17.80;;;14.07;;
1306;SDS011;646;48.696;9.114;2023-02-15T05:45:47;21.98;;;15.05;;
1306;SDS011;646;48.696;9.114;2023-02-15T05:48:13;25.63;;;13.93;;
1306;SDS011;646;48.696;9.114;2023-02-15T05:50:39;23.27;;;13.93;;
1306;SDS011;646;48.696;9.114;2023-02-15T05:53:05;21.80;;;15.50;;
1306;SDS011;646;48.696;9.114;2023-02-15T05:55:30;22.10;;;14.90;;
1306;SDS011;646;48.696;9.114;2023-02-15T05:57:56;22.90;;;16.00;;
1306;SDS011;646;48.696;9.114;2023-02-15T06:00:22;32.00;;;20.73;;
1306;SDS011;646;48.696;9.114;2023-02-15T06:02:48;31.02;;;20.05;;
1306;SDS011;646;48.696;9.114;2023-02-15T06:05:13;33.10;;;18.73;;
1306;SDS011;646;48.696;9.114;2023-02-15T06:07:39;29.73;;;17.63;;
1306;SDS011;646;48.696;9.114;2023-02-15T06:10:08;26.20;;;18.00;;
1306;SDS011;646;48.696;9.114;2023-02-15T06:12:34;24.17;;;16.07;;
1306;SDS011;646;48.696;9.114;2023-02-15T06:14:59;25.10;;;15.90;;
1306;SDS011;646;48.696;9.114;2023-02-15T06:17:25;20.30;;;14.90;;
1306;SDS011;646;48.696;9.114;2023-02-15T06:19:50;22.13;;;15.93;;
1306;SDS011;646;48.696;9.114;2023-02-15T06:22:16;20.93;;;15.10;;
1306;SDS011;646;48.696;9.114;2023-02-15T06:24:41;21.27;;;15.13;;
1306;SDS011;646;48.696;9.114;2023-02-15T06:27:08;19.37;;;13.47;;
1306;SDS011;646;48.696;9.114;2023-02-15T06:29:34;19.13;;;12.93;;
1306;SDS011;646;48.696;9.114;2023-02-15T06:32:00;25.13;;;16.80;;
1306;SDS011;646;48.696;9.114;2023-02-15T06:34:26;24.17;;;14.73;;
1306;SDS011;646;48.696;9.114;2023-02-15T06:36:51;21.40;;;14.30;;
1306;SDS011;646;48.696;9.114;2023-02-15T06:39:17;20.87;;;13.97;;
1306;SDS011;646;48.696;9.114;2023-02-15T06:41:42;16.27;;;12.33;;
1306;SDS011;646;48.696;9.114;2023-02-15T06:44:08;19.67;;;14.53;;
1306;SDS011;646;48.696;9.114;2023-02-15T06:46:33;20.70;;;13.90;;
1306;SDS011;646;48.696;9.114;2023-02-15T06:48:59;19.93;;;15.90;;
1306;SDS011;646;48.696;9.114;2023-02-15T06:51:24;19.07;;;13.43;;
1306;SDS011;646;48.696;9.114;2023-02-15T06:53:50;20.80;;;13.03;;
1306;SDS011;646;48.696;9.114;2023-02-15T06:56:15;23.50;;;13.80;;
1306;SDS011;646;48.696;9.114;2023-02-15T06:58:41;25.07;;;15.93;;
1306;SDS011;646;48.696;9.114;2023-02-15T07:01:07;23.43;;;15.23;;
1306;SDS011;646;48.696;9.114;2023-02-15T07:03:34;31.00;;;15.07;;
1306;SDS011;646;48.696;9.114;2023-02-15T07:06:00;19.63;;;13.88;;
1306;SDS011;646;48.696;9.114;2023-02-15T07:08:28;21.83;;;12.48;;
1306;SDS011;646;48.696;9.114;2023-02-15T07:10:54;25.80;;;15.20;;
1306;SDS011;646;48.696;9.114;2023-02-15T07:13:40;17.90;;;14.05;;
1306;SDS011;646;48.696;9.114;2023-02-15T07:16:07;22.65;;;17.85;;
1306;SDS011;646;48.696;9.114;2023-02-15T07:18:34;24.85;;;17.10;;
1306;SDS011;646;48.696;9.114;2023-02-15T07:21:00;18.47;;;14.50;;
1306;SDS011;646;48.696;9.114;2023-02-15T07:23:25;24.73;;;15.07;;
1306;SDS011;646;48.696;9.114;2023-02-15T07:25:57;21.60;;;16.53;;
1306;SDS011;646;48.696;9.114;2023-02-15T07:28:23;20.27;;;15.10;;
1306;SDS011;646;48.696;9.114;2023-02-15T07:30:49;22.30;;;16.53;;
1306;SDS011;646;48.696;9.114;2023-02-15T07:33:14;24.23;;;17.60;;
1306;SDS011;646;48.696;9.114;2023-02-15T07:35:58;22.35;;;16.58;;
1306;SDS011;646;48.696;9.114;2023-02-15T07:38:27;20.65;;;16.60;;
1306;SDS011;646;48.696;9.114;2023-02-15T07:41:09;26.25;;;16.63;;
1306;SDS011;646;48.696;9.114;2023-02-15T07:43:37;22.67;;;16.23;;
1306;SDS011;646;48.696;9.114;2023-02-15T07:46:06;19.42;;;15.07;;
1306;SDS011;646;48.696;9.114;2023-02-15T07:48:34;25.02;;;16.15;;
1306;SDS011;646;48.696;9.114;2023-02-15T07:51:00;28.17;;;16.45;;
1306;SDS011;646;48.696;9.114;2023-02-15T07:53:27;29.63;;;17.50;;
1306;SDS011;646;48.696;9.114;2023-02-15T07:55:53;20.55;;;15.20;;
1306;SDS011;646;48.696;9.114;2023-02-15T07:58:19;28.92;;;18.05;;
1306;SDS011;646;48.696;9.114;2023-02-15T08:00:45;27.90;;;18.00;;
1306;SDS011;646;48.696;9.114;2023-02-15T08:03:23;25.50;;;18.45;;
1306;SDS011;646;48.696;9.114;2023-02-15T08:05:54;31.65;;;17.13;;
1306;SDS011;646;48.696;9.114;2023-02-15T08:08:21;31.70;;;17.00;;
1306;SDS011;646;48.696;9.114;2023-02-15T08:11:00;24.45;;;17.08;;
1306;SDS011;646;48.696;9.114;2023-02-15T08:13:49;26.67;;;17.13;;
1306;SDS011;646;48.696;9.114;2023-02-15T08:21:38;66.45;;;37.70;;
1306;SDS011;646;48.696;9.114;2023-02-15T08:24:05;63.20;;;37.72;;
1306;SDS011;646;48.696;9.114;2023-02-15T08:26:32;51.13;;;32.88;;
1306;SDS011;646;48.696;9.114;2023-02-15T08:28:58;42.00;;;26.77;;
1306;SDS011;646;48.696;9.114;2023-02-15T08:31:25;33.72;;;24.63;;
1306;SDS011;646;48.696;9.114;2023-02-15T08:33:52;39.53;;;24.40;;
1306;SDS011;646;48.696;9.114;2023-02-15T08:36:19;39.63;;;26.10;;
1306;SDS011;646;48.696;9.114;2023-02-15T08:38:46;41.78;;;26.38;;
1306;SDS011;646;48.696;9.114;2023-02-15T08:43:37;46.13;;;30.07;;
1306;SDS011;646;48.696;9.114;2023-02-15T08:46:04;33.75;;;25.52;;
1306;SDS011;646;48.696;9.114;2023-02-15T08:48:33;30.38;;;23.00;;
1306;SDS011;646;48.696;9.114;2023-02-15T08:51:03;28.53;;;19.83;;
1306;SDS011;646;48.696;9.114;2023-02-15T08:53:35;25.15;;;17.98;;
1306;SDS011;646;48.696;9.114;2023-02-15T08:56:01;25.27;;;17.52;;
1306;SDS011;646;48.696;9.114;2023-02-15T08:58:27;19.90;;;17.57;;
1306;SDS011;646;48.696;9.114;2023-02-15T09:00:53;16.93;;;15.03;;
1306;SDS011;646;48.696;9.114;2023-02-15T09:03:19;16.80;;;15.00;;
1306;SDS011;646;48.696;9.114;2023-02-15T09:05:44;17.40;;;15.60;;
1306;SDS011;646;48.696;9.114;2023-02-15T09:08:10;16.57;;;14.87;;
1306;SDS011;646;48.696;9.114;2023-02-15T09:10:35;14.40;;;12.90;;
1306;SDS011;646;48.696;9.114;2023-02-15T09:13:01;14.67;;;13.27;;
1306;SDS011;646;48.696;9.114;2023-02-15T09:15:26;14.80;;;13.30;;
1306;SDS011;646;48.696;9.114;2023-02-15T09:17:52;12.40;;;11.20;;
1306;SDS011;646;48.696;9.114;2023-02-15T09:20:18;12.80;;;11.60;;
1306;SDS011;646;48.696;9.114;2023-02-15T09:22:43;13.57;;;12.27;;
1306;SDS011;646;48.696;9.114;2023-02-15T09:25:09;13.30;;;12.10;;
1306;SDS011;646;48.696;9.114;2023-02-15T09:27:34;11.87;;;10.80;;
1306;SDS011;646;48.696;9.114;2023-02-15T09:30:01;11.97;;;10.77;;
1306;SDS011;646;48.696;9.114;2023-02-15T09:32:27;13.30;;;12.17;;
1306;SDS011;646;48.696;9.114;2023-02-15T09:34:53;11.90;;;10.70;;
1306;SDS011;646;48.696;9.114;2023-02-15T09:37:18;12.93;;;11.70;;
1306;SDS011;646;48.696;9.114;2023-02-15T09:39:44;11.40;;;10.40;;
1306;SDS011;646;48.696;9.114;2023-02-15T09:44:55;11.90;;;10.90;;
1306;SDS011;646;48.696;9.114;2023-02-15T09:47:39;11.70;;;10.60;;
1306;SDS011;646;48.696;9.114;2023-02-15T09:50:13;13.33;;;12.13;;
1306;SDS011;646;48.696;9.114;2023-02-15T09:55:32;11.20;;;10.20;;
1306;SDS011;646;48.696;9.114;2023-02-15T10:03:34;11.23;;;10.23;;
1306;SDS011;646;48.696;9.114;2023-02-15T10:12:44;11.20;;;10.10;;
1306;SDS011;646;48.696;9.114;2023-02-15T10:26:19;10.27;;;9.33;;
1306;SDS011;646;48.696;9.114;2023-02-15T10:28:53;9.63;;;8.80;;
1306;SDS011;646;48.696;9.114;2023-02-15T10:31:25;9.50;;;8.70;;
1306;SDS011;646;48.696;9.114;2023-02-15T10:34:29;10.60;;;9.70;;
1306;SDS011;646;48.696;9.114;2023-02-15T10:39:56;9.73;;;8.73;;
1306;SDS011;646;48.696;9.114;2023-02-15T10:50:49;11.00;;;10.00;;
1306;SDS011;646;48.696;9.114;2023-02-15T10:56:12;10.10;;;9.30;;
1306;SDS011;646;48.696;9.114;2023-02-15T10:59:03;10.20;;;9.40;;
1306;SDS011;646;48.696;9.114;2023-02-15T11:06:41;15.30;;;13.90;;
1306;SDS011;646;48.696;9.114;2023-02-15T11:09:13;11.63;;;10.53;;
1306;SDS011;646;48.696;9.114;2023-02-15T11:11:42;15.50;;;14.00;;
1306;SDS011;646;48.696;9.114;2023-02-15T11:14:17;12.30;;;11.20;;
1306;SDS011;646;48.696;9.114;2023-02-15T11:17:07;14.17;;;12.77;;
1306;SDS011;646;48.696;9.114;2023-02-15T11:19:38;16.37;;;14.80;;
1306;SDS011;646;48.696;9.114;2023-02-15T11:22:30;15.67;;;14.27;;
1306;SDS011;646;48.696;9.114;2023-02-15T11:24:58;15.50;;;14.20;;
1306;SDS011;646;48.696;9.114;2023-02-15T11:27:26;16.17;;;14.77;;
1306;SDS011;646;48.696;9.114;2023-02-15T11:34:55;15.40;;;14.00;;
1306;SDS011;646;48.696;9.114;2023-02-15T11:40:34;17.83;;;16.33;;
1306;SDS011;646;48.696;9.114;2023-02-15T11:43:07;16.27;;;14.87;;
1306;SDS011;646;48.696;9.114;2023-02-15T11:45:40;20.20;;;18.50;;
1306;SDS011;646;48.696;9.114;2023-02-15T11:48:08;18.67;;;16.90;;
1306;SDS011;646;48.696;9.114;2023-02-15T11:50:36;19.03;;;17.40;;
1306;SDS011;646;48.696;9.114;2023-02-15T11:53:04;21.03;;;19.03;;
1306;SDS011;646;48.696;9.114;2023-02-15T11:55:36;20.63;;;18.70;;
1306;SDS011;646;48.696;9.114;2023-02-15T12:00:45;22.50;;;20.50;;
1306;SDS011;646;48.696;9.114;2023-02-15T12:06:03;23.40;;;21.00;;
1306;SDS011;646;48.696;9.114;2023-02-15T12:08:37;21.87;;;19.87;;
1306;SDS011;646;48.696;9.114;2023-02-15T12:11:09;21.93;;;19.60;;
1306;SDS011;646;48.696;9.114;2023-02-15T12:13:39;20.80;;;19.00;;
1306;SDS011;646;48.696;9.114;2023-02-15T12:16:31;20.57;;;18.63;;
1306;SDS011;646;48.696;9.114;2023-02-15T12:19:04;21.93;;;19.63;;
1306;SDS011;646;48.696;9.114;2023-02-15T12:21:31;19.30;;;17.53;;
1306;SDS011;646;48.696;9.114;2023-02-15T12:24:10;23.30;;;18.27;;
1306;SDS011;646;48.696;9.114;2023-02-15T12:26:55;19.57;;;17.83;;
1306;SDS011;646;48.696;9.114;2023-02-15T12:29:41;19.70;;;17.77;;
1306;SDS011;646;48.696;9.114;2023-02-15T12:35:00;19.57;;;17.77;;
1306;SDS011;646;48.696;9.114;2023-02-15T12:37:35;20.47;;;18.53;;
1306;SDS011;646;48.696;9.114;2023-02-15T12:40:17;20.17;;;18.47;;
1306;SDS011;646;48.696;9.114;2023-02-15T12:42:45;18.87;;;17.03;;
1306;SDS011;646;48.696;9.114;2023-02-15T12:45:21;20.30;;;18.20;;
1306;SDS011;646;48.696;9.114;2023-02-15T12:48:08;19.70;;;17.80;;
1306;SDS011;646;48.696;9.114;2023-02-15T12:50:39;18.97;;;17.13;;
1306;SDS011;646;48.696;9.114;2023-02-15T12:53:08;18.73;;;16.93;;
1306;SDS011;646;48.696;9.114;2023-02-15T12:55:47;18.90;;;17.10;;
1306;SDS011;646;48.696;9.114;2023-02-15T12:58:35;16.90;;;15.37;;
1306;SDS011;646;48.696;9.114;2023-02-15T13:03:50;16.47;;;14.97;;
1306;SDS011;646;48.696;9.114;2023-02-15T13:06:21;12.40;;;11.20;;
1306;SDS011;646;48.696;9.114;2023-02-15T13:08:50;8.90;;;8.20;;
1306;SDS011;646;48.696;9.114;2023-02-15T13:11:25;10.23;;;9.40;;
1306;SDS011;646;48.696;9.114;2023-02-15T13:13:55;9.70;;;8.90;;
1306;SDS011;646;48.696;9.114;2023-02-15T13:18:57;14.87;;;13.13;;
1306;SDS011;646;48.696;9.114;2023-02-15T13:21:29;15.47;;;14.07;;
1306;SDS011;646;48.696;9.114;2023-02-15T13:27:05;17.57;;;15.87;;
1306;SDS011;646;48.696;9.114;2023-02-15T13:29:36;16.40;;;15.00;;
1306;SDS011;646;48.696;9.114;2023-02-15T13:32:18;17.93;;;15.10;;
1306;SDS011;646;48.696;9.114;2023-02-15T13:34:51;17.27;;;15.73;;
1306;SDS011;646;48.696;9.114;2023-02-15T13:37:32;18.27;;;16.47;;
1306;SDS011;646;48.696;9.114;2023-02-15T13:43:23;17.93;;;15.40;;
1306;SDS011;646;48.696;9.114;2023-02-15T13:46:45;18.33;;;16.70;;
1306;SDS011;646;48.696;9.114;2023-02-15T13:57:32;17.87;;;16.07;;
1306;SDS011;646;48.696;9.114;2023-02-15T14:03:35;20.17;;;18.07;;
1306;SDS011;646;48.696;9.114;2023-02-15T14:09:32;20.77;;;18.97;;
1306;SDS011;646;48.696;9.114;2023-02-15T14:15:44;20.13;;;18.30;;
1306;SDS011;646;48.696;9.114;2023-02-15T14:20:47;18.83;;;17.13;;
1306;SDS011;646;48.696;9.114;2023-02-15T14:23:33;20.17;;;18.07;;
1306;SDS011;646;48.696;9.114;2023-02-15T14:26:26;19.93;;;18.03;;
1306;SDS011;646;48.696;9.114;2023-02-15T14:32:00;19.70;;;17.93;;
1306;SDS011;646;48.696;9.114;2023-02-15T14:34:44;17.73;;;16.03;;
1306;SDS011;646;48.696;9.114;2023-02-15T14:37:18;15.67;;;14.20;;
1306;SDS011;646;48.696;9.114;2023-02-15T14:39:57;16.43;;;14.93;;
1306;SDS011;646;48.696;9.114;2023-02-15T14:43:06;17.47;;;15.70;;
1306;SDS011;646;48.696;9.114;2023-02-15T14:45:55;13.97;;;12.57;;
1306;SDS011;646;48.696;9.114;2023-02-15T14:48:38;14.83;;;13.53;;
1306;SDS011;646;48.696;9.114;2023-02-15T14:51:10;15.83;;;13.60;;
1306;SDS011;646;48.696;9.114;2023-02-15T14:53:50;14.30;;;12.23;;
1306;SDS011;646;48.696;9.114;2023-02-15T14:56:17;13.60;;;12.23;;
1306;SDS011;646;48.696;9.114;2023-02-15T15:01:17;13.37;;;12.07;;
1306;SDS011;646;48.696;9.114;2023-02-15T15:04:13;14.43;;;13.03;;
1306;SDS011;646;48.696;9.114;2023-02-15T15:06:57;14.10;;;12.60;;
1306;SDS011;646;48.696;9.114;2023-02-15T15:09:28;16.10;;;14.57;;
1306;SDS011;646;48.696;9.114;2023-02-15T15:12:12;14.27;;;12.93;;
1306;SDS011;646;48.696;9.114;2023-02-15T15:14:43;16.03;;;14.03;;
1306;SDS011;646;48.696;9.114;2023-02-15T15:17:13;13.57;;;12.17;;
1306;SDS011;646;48.696;9.114;2023-02-15T15:25:42;11.67;;;10.23;;
1306;SDS011;646;48.696;9.114;2023-02-15T15:36:50;12.10;;;10.83;;
1306;SDS011;646;48.696;9.114;2023-02-15T15:45:33;12.53;;;11.03;;
1306;SDS011;646;48.696;9.114;2023-02-15T15:48:22;13.50;;;11.50;;
1306;SDS011;646;48.696;9.114;2023-02-15T15:50:56;19.80;;;13.73;;
1306;SDS011;646;48.696;9.114;2023-02-15T15:53:24;14.50;;;12.70;;
1306;SDS011;646;48.696;9.114;2023-02-15T15:55:54;18.23;;;12.87;;
1306;SDS011;646;48.696;9.114;2023-02-15T15:58:24;14.40;;;12.57;;
1306;SDS011;646;48.696;9.114;2023-02-15T16:00:54;18.90;;;11.97;;
1306;SDS011;646;48.696;9.114;2023-02-15T16:03:25;15.07;;;13.37;;
1306;SDS011;646;48.696;9.114;2023-02-15T16:05:53;15.90;;;13.20;;
1306;SDS011;646;48.696;9.114;2023-02-15T16:08:27;18.27;;;13.47;;
1306;SDS011;646;48.696;9.114;2023-02-15T16:10:53;18.50;;;14.53;;
1306;SDS011;646;48.696;9.114;2023-02-15T16:13:18;22.13;;;15.27;;
1306;SDS011;646;48.696;9.114;2023-02-15T16:15:45;18.80;;;14.77;;
1306;SDS011;646;48.696;9.114;2023-02-15T16:18:17;19.43;;;14.83;;
1306;SDS011;646;48.696;9.114;2023-02-15T16:20:57;19.10;;;14.27;;
1306;SDS011;646;48.696;9.114;2023-02-15T16:26:22;21.43;;;15.70;;
1306;SDS011;646;48.696;9.114;2023-02-15T16:29:17;16.97;;;14.97;;
1306;SDS011;646;48.696;9.114;2023-02-15T16:31:58;16.88;;;14.88;;
1306;SDS011;646;48.696;9.114;2023-02-15T16:34:28;17.33;;;14.38;;
1306;SDS011;646;48.696;9.114;2023-02-15T16:37:13;15.60;;;13.07;;
1306;SDS011;646;48.696;9.114;2023-02-15T16:39:43;17.10;;;14.40;;
1306;SDS011;646;48.696;9.114;2023-02-15T16:42:10;15.63;;;13.70;;
1306;SDS011;646;48.696;9.114;2023-02-15T16:44:36;14.35;;;12.82;;
1306;SDS011;646;48.696;9.114;2023-02-15T16:47:03;14.20;;;12.70;;
1306;SDS011;646;48.696;9.114;2023-02-15T16:49:29;15.60;;;13.18;;
1306;SDS011;646;48.696;9.114;2023-02-15T16:51:59;16.08;;;12.82;;
1306;SDS011;646;48.696;9.114;2023-02-15T16:54:27;16.80;;;13.88;;
1306;SDS011;646;48.696;9.114;2023-02-15T16:56:54;15.77;;;12.50;;
1306;SDS011;646;48.696;9.114;2023-02-15T17:02:23;15.07;;;11.90;;
1306;SDS011;646;48.696;9.114;2023-02-15T17:05:04;16.60;;;12.40;;
1306;SDS011;646;48.696;9.114;2023-02-15T17:07:48;20.63;;;13.23;;
1306;SDS011;646;48.696;9.114;2023-02-15T17:10:35;16.98;;;12.80;;
1306;SDS011;646;48.696;9.114;2023-02-15T17:13:13;16.20;;;13.10;;
1306;SDS011;646;48.696;9.114;2023-02-15T17:18:31;16.00;;;11.73;;
1306;SDS011;646;48.696;9.114;2023-02-15T17:21:00;17.38;;;13.00;;
1306;SDS011;646;48.696;9.114;2023-02-15T17:23:36;15.48;;;12.90;;
1306;SDS011;646;48.696;9.114;2023-02-15T17:26:13;15.98;;;12.10;;
1306;SDS011;646;48.696;9.114;2023-02-15T17:28:45;14.80;;;11.68;;
1306;SDS011;646;48.696;9.114;2023-02-15T17:31:14;14.05;;;12.00;;
1306;SDS011;646;48.696;9.114;2023-02-15T17:33:42;22.95;;;13.30;;
1306;SDS011;646;48.696;9.114;2023-02-15T17:38:41;18.58;;;11.63;;
1306;SDS011;646;48.696;9.114;2023-02-15T17:41:30;19.25;;;12.93;;
1306;SDS011;646;48.696;9.114;2023-02-15T17:43:59;17.63;;;12.55;;
1306;SDS011;646;48.696;9.114;2023-02-15T17:46:26;16.55;;;11.82;;
1306;SDS011;646;48.696;9.114;2023-02-15T17:48:56;16.88;;;12.23;;
1306;SDS011;646;48.696;9.114;2023-02-15T17:51:22;17.50;;;12.10;;
1306;SDS011;646;48.696;9.114;2023-02-15T17:53:48;15.40;;;11.80;;
1306;SDS011;646;48.696;9.114;2023-02-15T17:56:32;16.05;;;11.50;;
1306;SDS011;646;48.696;9.114;2023-02-15T17:58:59;16.05;;;11.50;;
1306;SDS011;646;48.696;9.114;2023-02-15T18:01:24;16.37;;;11.80;;
1306;SDS011;646;48.696;9.114;2023-02-15T18:04:09;13.52;;;10.65;;
1306;SDS011;646;48.696;9.114;2023-02-15T18:06:55;15.95;;;12.88;;
1306;SDS011;646;48.696;9.114;2023-02-15T18:09:40;16.90;;;14.05;;
1306;SDS011;646;48.696;9.114;2023-02-15T18:14:55;19.88;;;14.23;;